Time;durP1;ratioP1;P1;durP2;ratioP2;P2;SDS_P1;SDS_P2;PMS_P1;PMS_P2;Temp;Humidity;BMP_temperature;BMP_pressure;BME280_temperature;BME280_humidity;BME280_pressure;Samples;Min_cycle;Max_cycle;Signal;HPM_P1;HPM_P2
2023/10/06 11:18:09;;;;;;;;;4.75;4.75;;;;;;;;6297905;22;75191;-70
2023/10/06 11:20:39;;;;;;;;;7.20;6.60;;;;;;;;6307646;22;45184;-72
2023/10/06 11:23:04;;;;;;;;;9.25;8.00;;;;;;;;6308827;22;45282;-71
2023/10/06 11:25:32;;;;;;;;;8.25;6.25;;;;;;;;6307559;22;45204;-71
2023/10/06 11:28:02;;;;;;;;;10.25;7.75;;;;;;;;6308167;22;45261;-71
2023/10/06 11:30:28;;;;;;;;;9.20;7.20;;;;;;;;6279998;22;45419;-71
2023/10/06 11:32:57;;;;;;;;;10.00;8.50;;;;;;;;6308255;22;45230;-71
2023/10/06 11:35:22;;;;;;;;;6.50;6.50;;;;;;;;6308839;22;45226;-71
2023/10/06 11:37:48;;;;;;;;;9.00;6.75;;;;;;;;6308789;22;45144;-71
2023/10/06 11:40:14;;;;;;;;;8.50;7.50;;;;;;;;6307277;22;45254;-71
2023/10/06 11:42:41;;;;;;;;;8.25;8.25;;;;;;;;6308529;22;45131;-70
2023/10/06 11:45:19;;;;;;;;;7.50;6.00;;;;;;;;6308498;22;45234;-70
2023/10/06 11:47:46;;;;;;;;;6.40;4.80;;;;;;;;6307447;22;45223;-70
2023/10/06 11:50:25;;;;;;;;;9.00;7.00;;;;;;;;6308745;22;45250;-70
2023/10/06 11:52:50;;;;;;;;;7.60;6.80;;;;;;;;6276911;22;45292;-71
2023/10/06 11:55:31;;;;;;;;;8.25;7.25;;;;;;;;6308246;22;45280;-70
2023/10/06 11:57:58;;;;;;;;;5.60;5.60;;;;;;;;6308605;22;45973;-69
2023/10/06 12:00:37;;;;;;;;;3.60;3.60;;;;;;;;6308884;22;45671;-70
2023/10/06 12:03:02;;;;;;;;;9.40;6.80;;;;;;;;6308611;22;45251;-70
2023/10/06 12:05:27;;;;;;;;;7.25;6.50;;;;;;;;6308945;22;45202;-70
2023/10/06 12:07:59;;;;;;;;;5.50;5.50;;;;;;;;6308372;22;46223;-71
2023/10/06 12:10:25;;;;;;;;;4.80;4.60;;;;;;;;6308851;22;45207;-71
2023/10/06 12:12:51;;;;;;;;;5.50;5.25;;;;;;;;6308637;22;45226;-71
2023/10/06 12:15:16;;;;;;;;;7.25;6.00;;;;;;;;6308531;22;45309;-71
2023/10/06 12:17:43;;;;;;;;;5.00;4.75;;;;;;;;6278880;22;47834;-71
2023/10/06 12:20:15;;;;;;;;;5.40;5.40;;;;;;;;6308361;22;45247;-70
2023/10/06 12:22:42;;;;;;;;;7.60;4.80;;;;;;;;6308642;22;45141;-71
2023/10/06 12:25:08;;;;;;;;;4.60;4.60;;;;;;;;6308621;22;45202;-70
2023/10/06 12:27:33;;;;;;;;;5.00;3.25;;;;;;;;6306016;22;45293;-71
2023/10/06 12:30:03;;;;;;;;;3.60;3.60;;;;;;;;6307261;22;45349;-71
2023/10/06 12:32:30;;;;;;;;;5.80;4.00;;;;;;;;6307970;22;45290;-70
2023/10/06 12:34:57;;;;;;;;;4.80;4.80;;;;;;;;6280843;22;46702;-70
2023/10/06 12:37:24;;;;;;;;;5.20;5.20;;;;;;;;6279165;22;47703;-71
2023/10/06 12:39:51;;;;;;;;;5.40;4.20;;;;;;;;6308419;22;45243;-71
2023/10/06 12:42:17;;;;;;;;;5.60;5.60;;;;;;;;6308357;22;45208;-71
2023/10/06 12:44:42;;;;;;;;;4.50;4.25;;;;;;;;6308681;22;45135;-70
2023/10/06 12:47:10;;;;;;;;;7.75;5.75;;;;;;;;6307720;22;46162;-70
2023/10/06 12:49:36;;;;;;;;;4.00;4.00;;;;;;;;6308690;22;45160;-70
2023/10/06 12:52:02;;;;;;;;;4.50;2.75;;;;;;;;6308382;22;45204;-70
2023/10/06 12:54:29;;;;;;;;;6.75;6.75;;;;;;;;6308745;22;45341;-71
2023/10/06 12:56:54;;;;;;;;;5.40;5.40;;;;;;;;6308417;22;45227;-71
2023/10/06 12:59:20;;;;;;;;;3.50;3.50;;;;;;;;6308800;22;45272;-70
2023/10/06 13:01:48;;;;;;;;;6.00;5.00;;;;;;;;6308150;22;45203;-70
2023/10/06 13:04:13;;;;;;;;;4.00;4.00;;;;;;;;6308540;22;45397;-70
2023/10/06 13:06:38;;;;;;;;;4.00;4.00;;;;;;;;6306624;22;46010;-70
2023/10/06 13:09:03;;;;;;;;;5.00;5.00;;;;;;;;6280862;22;45247;-70
2023/10/06 13:11:29;;;;;;;;;7.75;4.00;;;;;;;;6308268;22;45213;-71
2023/10/06 13:13:54;;;;;;;;;11.00;5.25;;;;;;;;6308405;22;45157;-71
2023/10/06 13:16:20;;;;;;;;;5.75;4.75;;;;;;;;6280940;22;47432;-71
2023/10/06 13:18:45;;;;;;;;;6.00;5.00;;;;;;;;6339964;22;45069;-71
2023/10/06 13:21:11;;;;;;;;;4.75;4.00;;;;;;;;6339871;22;45152;-71
2023/10/06 13:23:37;;;;;;;;;6.00;6.00;;;;;;;;6339309;22;45246;-71
2023/10/06 13:26:02;;;;;;;;;16.25;12.50;;;;;;;;6339042;22;46090;-71
2023/10/06 13:28:28;;;;;;;;;5.50;3.75;;;;;;;;6339897;22;45305;-71
2023/10/06 13:30:54;;;;;;;;;6.50;6.50;;;;;;;;6338828;22;45219;-71
2023/10/06 13:33:19;;;;;;;;;5.00;4.75;;;;;;;;6339998;22;45270;-71
2023/10/06 13:35:44;;;;;;;;;4.25;4.25;;;;;;;;6339619;22;45399;-70
2023/10/06 13:38:10;;;;;;;;;7.00;4.50;;;;;;;;6340050;22;45199;-72
2023/10/06 13:40:37;;;;;;;;;4.00;4.00;;;;;;;;6340115;22;45247;-72
2023/10/06 13:43:02;;;;;;;;;6.25;5.25;;;;;;;;6339888;22;45388;-71
2023/10/06 13:45:29;;;;;;;;;8.75;4.75;;;;;;;;6338059;22;45359;-71
2023/10/06 13:47:55;;;;;;;;;7.50;6.00;;;;;;;;6339491;22;45288;-72
2023/10/06 13:50:25;;;;;;;;;6.25;4.50;;;;;;;;6338038;22;45393;-71
2023/10/06 13:52:50;;;;;;;;;7.00;4.50;;;;;;;;6339277;22;45693;-72
2023/10/06 13:55:17;;;;;;;;;6.00;4.50;;;;;;;;6339911;22;45194;-71
2023/10/06 13:57:44;;;;;;;;;8.25;4.50;;;;;;;;6311240;22;45212;-71
2023/10/06 14:00:13;;;;;;;;;5.25;4.50;;;;;;;;6311424;22;45244;-71
2023/10/06 14:02:39;;;;;;;;;3.75;3.75;;;;;;;;6338535;22;45765;-71
2023/10/06 14:05:04;;;;;;;;;5.00;4.50;;;;;;;;6340027;22;45318;-70
2023/10/06 14:07:31;;;;;;;;;3.25;2.50;;;;;;;;6339566;22;45261;-71
2023/10/06 14:09:56;;;;;;;;;8.50;5.25;;;;;;;;6311689;22;45263;-71
2023/10/06 14:12:22;;;;;;;;;5.00;4.00;;;;;;;;6339257;22;45488;-71
2023/10/06 14:17:29;;;;;;;;;6.50;4.75;;;;;;;;6338264;22;45203;-71
2023/10/06 14:19:54;;;;;;;;;5.25;5.00;;;;;;;;6339983;22;45223;-72
2023/10/06 14:22:22;;;;;;;;;3.00;2.25;;;;;;;;6310593;22;45416;-71
2023/10/06 14:24:48;;;;;;;;;5.00;3.25;;;;;;;;6338960;22;45239;-72
2023/10/06 14:27:17;;;;;;;;;1.00;1.00;;;;;;;;6339165;22;45081;-72
2023/10/06 14:29:43;;;;;;;;;6.00;4.75;;;;;;;;6338355;22;45329;-72
2023/10/06 14:32:18;;;;;;;;;4.25;4.25;;;;;;;;6338489;22;45270;-72
2023/10/06 14:35:11;;;;;;;;;5.00;5.00;;;;;;;;6339381;22;45443;-72
2023/10/06 14:37:40;;;;;;;;;5.40;3.80;;;;;;;;6338968;22;45262;-72
2023/10/06 14:48:27;;;;;;;;;2.20;2.20;;;;;;;;6340542;22;45341;-72
2023/10/06 14:50:59;;;;;;;;;6.25;5.25;;;;;;;;6340975;22;45260;-72
2023/10/06 14:53:30;;;;;;;;;7.25;3.25;;;;;;;;6340824;22;45173;-73
2023/10/06 14:55:56;;;;;;;;;3.80;2.80;;;;;;;;6340652;22;45562;-72
2023/10/06 14:58:21;;;;;;;;;3.50;1.00;;;;;;;;6340536;22;45259;-72
2023/10/06 15:00:47;;;;;;;;;3.75;3.50;;;;;;;;6340308;22;45253;-73
2023/10/06 15:03:18;;;;;;;;;4.00;2.00;;;;;;;;6340192;22;45377;-72
2023/10/06 15:05:45;;;;;;;;;4.00;2.80;;;;;;;;6340634;22;45364;-72
2023/10/06 15:08:12;;;;;;;;;3.80;3.60;;;;;;;;6340521;22;45224;-72
2023/10/06 15:10:39;;;;;;;;;3.00;2.75;;;;;;;;6341032;22;45230;-72
2023/10/06 15:13:04;;;;;;;;;2.75;2.00;;;;;;;;6339940;22;45322;-72
2023/10/06 15:15:29;;;;;;;;;14.00;13.25;;;;;;;;6340782;22;46240;-72
2023/10/06 15:17:55;;;;;;;;;4.50;4.25;;;;;;;;6340284;22;45105;-71
2023/10/06 15:20:26;;;;;;;;;3.75;3.75;;;;;;;;6340868;22;45217;-72
2023/10/06 15:22:52;;;;;;;;;3.25;3.00;;;;;;;;6340601;22;45193;-72
2023/10/06 15:25:19;;;;;;;;;3.20;2.40;;;;;;;;6340198;22;45240;-72
2023/10/06 15:27:44;;;;;;;;;4.20;2.60;;;;;;;;6339961;22;45247;-72
2023/10/06 15:30:09;;;;;;;;;2.00;2.00;;;;;;;;6341248;22;45139;-72
2023/10/06 15:32:35;;;;;;;;;4.25;4.25;;;;;;;;6338394;22;45460;-72
2023/10/06 15:35:00;;;;;;;;;2.50;2.50;;;;;;;;6340691;22;45140;-72
2023/10/06 15:37:25;;;;;;;;;4.00;4.00;;;;;;;;6311732;22;45188;-72
2023/10/06 15:39:51;;;;;;;;;4.00;3.00;;;;;;;;6341027;22;45501;-72
2023/10/06 15:42:17;;;;;;;;;3.00;3.00;;;;;;;;6340277;22;45425;-71
2023/10/06 15:44:42;;;;;;;;;2.00;1.00;;;;;;;;6339186;22;45405;-72
2023/10/06 15:47:07;;;;;;;;;1.00;1.00;;;;;;;;6340189;22;45192;-72
2023/10/06 15:49:36;;;;;;;;;4.00;2.25;;;;;;;;6340521;22;45310;-75
2023/10/06 15:52:02;;;;;;;;;2.00;1.50;;;;;;;;6310923;22;45931;-72
2023/10/06 15:54:28;;;;;;;;;3.00;3.00;;;;;;;;6340108;22;45302;-72
2023/10/06 15:56:53;;;;;;;;;1.00;1.00;;;;;;;;6338332;22;45201;-72
2023/10/06 15:59:20;;;;;;;;;3.25;3.00;;;;;;;;6340873;22;45451;-72
2023/10/06 16:01:47;;;;;;;;;2.25;2.00;;;;;;;;6339569;22;46163;-72
2023/10/06 16:04:13;;;;;;;;;2.50;2.00;;;;;;;;6339830;22;46290;-71
2023/10/06 16:06:38;;;;;;;;;1.80;1.80;;;;;;;;6340608;22;45167;-70
2023/10/06 16:09:07;;;;;;;;;2.00;2.00;;;;;;;;6312527;22;45502;-72
2023/10/06 16:11:34;;;;;;;;;3.00;2.00;;;;;;;;6339846;22;45164;-72
2023/10/06 16:14:04;;;;;;;;;3.50;2.00;;;;;;;;6311808;22;47471;-72
2023/10/06 16:16:30;;;;;;;;;2.25;2.25;;;;;;;;6310944;22;45284;-73
2023/10/06 16:18:55;;;;;;;;;1.25;1.25;;;;;;;;6339486;22;45180;-72
2023/10/06 16:21:20;;;;;;;;;2.00;1.00;;;;;;;;6340333;22;45212;-73
2023/10/06 16:23:51;;;;;;;;;2.75;1.75;;;;;;;;6310345;22;46660;-72
2023/10/06 16:26:18;;;;;;;;;2.50;2.50;;;;;;;;6339968;22;45238;-72
2023/10/06 16:28:43;;;;;;;;;3.00;3.00;;;;;;;;6339809;22;45241;-72
2023/10/06 16:31:09;;;;;;;;;3.75;3.75;;;;;;;;6339934;22;45188;-72
2023/10/06 16:33:41;;;;;;;;;3.00;2.00;;;;;;;;6311188;22;46807;-72
2023/10/06 16:36:10;;;;;;;;;16.00;13.00;;;;;;;;6340237;22;45223;-72
2023/10/06 16:38:38;;;;;;;;;11.33;11.33;;;;;;;;6338744;22;45335;-72
2023/10/06 16:41:03;;;;;;;;;18.67;15.00;;;;;;;;6339819;22;45366;-72
2023/10/06 16:43:34;;;;;;;;;6.25;5.00;;;;;;;;6310560;22;47679;-72
2023/10/06 16:46:04;;;;;;;;;4.50;4.00;;;;;;;;6339627;22;45261;-73
2023/10/06 16:48:29;;;;;;;;;4.00;4.00;;;;;;;;6340136;22;45172;-72
2023/10/06 16:50:55;;;;;;;;;2.25;2.25;;;;;;;;6339339;22;45149;-72
2023/10/06 16:53:20;;;;;;;;;5.00;3.75;;;;;;;;6339999;22;46046;-73
2023/10/06 16:55:53;;;;;;;;;3.25;2.50;;;;;;;;6339927;22;45296;-73
2023/10/06 16:58:19;;;;;;;;;3.75;3.25;;;;;;;;6311851;22;45393;-72
2023/10/06 17:00:45;;;;;;;;;3.50;3.00;;;;;;;;6339617;22;45476;-73
2023/10/06 17:03:11;;;;;;;;;4.00;4.00;;;;;;;;6339566;22;45280;-72
2023/10/06 17:05:40;;;;;;;;;4.33;4.00;;;;;;;;6337657;22;45291;-75
2023/10/06 17:08:05;;;;;;;;;6.00;4.00;;;;;;;;6310387;22;45283;-70
2023/10/06 17:10:31;;;;;;;;;1.67;1.67;;;;;;;;6339543;22;45247;-70
2023/10/06 17:12:57;;;;;;;;;4.25;4.25;;;;;;;;6339775;22;45274;-70
2023/10/06 17:15:23;;;;;;;;;3.75;2.75;;;;;;;;6340036;22;45245;-70
2023/10/06 17:17:48;;;;;;;;;4.00;4.00;;;;;;;;6337009;22;45427;-70
2023/10/06 17:20:17;;;;;;;;;3.50;3.50;;;;;;;;6340232;22;45317;-70
2023/10/06 17:22:45;;;;;;;;;3.00;3.00;;;;;;;;6339626;22;46349;-70
2023/10/06 17:25:14;;;;;;;;;3.00;3.00;;;;;;;;6339903;22;45277;-70
2023/10/06 17:27:39;;;;;;;;;4.00;3.00;;;;;;;;6339320;22;45232;-70
2023/10/06 17:30:07;;;;;;;;;4.67;4.67;;;;;;;;6340021;22;45351;-71
2023/10/06 17:32:33;;;;;;;;;4.00;2.33;;;;;;;;6339052;22;45310;-70
2023/10/06 17:34:58;;;;;;;;;7.00;7.00;;;;;;;;6311529;22;45282;-70
2023/10/06 17:37:23;;;;;;;;;7.67;6.33;;;;;;;;6340035;22;45184;-70
2023/10/06 17:39:48;;;;;;;;;7.33;6.00;;;;;;;;6339607;22;45243;-70
2023/10/06 17:42:13;;;;;;;;;6.00;5.33;;;;;;;;6311337;22;46904;-70
2023/10/06 17:44:41;;;;;;;;;8.00;6.33;;;;;;;;6339741;22;45164;-70
2023/10/06 17:47:07;;;;;;;;;9.00;8.00;;;;;;;;6339080;22;45255;-70
2023/10/06 17:49:33;;;;;;;;;9.33;7.67;;;;;;;;6339615;22;45227;-70
2023/10/06 17:51:58;;;;;;;;;7.67;6.67;;;;;;;;6339202;22;45218;-70
2023/10/06 17:54:23;;;;;;;;;6.00;6.00;;;;;;;;6339688;22;45217;-70
2023/10/06 17:56:50;;;;;;;;;7.67;6.33;;;;;;;;6339028;22;45530;-71
2023/10/06 17:59:15;;;;;;;;;9.00;7.00;;;;;;;;6339585;22;45405;-70
2023/10/06 18:01:41;;;;;;;;;8.00;6.33;;;;;;;;6339019;22;45332;-69
2023/10/06 18:04:06;;;;;;;;;8.00;8.00;;;;;;;;6339787;22;45207;-70
2023/10/06 18:06:31;;;;;;;;;6.67;5.00;;;;;;;;6339558;22;45226;-70
2023/10/06 18:08:56;;;;;;;;;7.00;5.67;;;;;;;;6311419;22;46936;-72
2023/10/06 18:11:23;;;;;;;;;10.33;8.00;;;;;;;;6339597;22;45287;-70
2023/10/06 18:13:48;;;;;;;;;10.00;8.33;;;;;;;;6337823;22;45223;-70
2023/10/06 18:16:13;;;;;;;;;9.67;8.33;;;;;;;;6310775;22;45276;-70
2023/10/06 18:18:40;;;;;;;;;8.67;8.33;;;;;;;;6340757;22;45289;-70
2023/10/06 18:21:05;;;;;;;;;11.00;10.00;;;;;;;;6340646;22;45438;-71
2023/10/06 18:23:30;;;;;;;;;8.67;8.67;;;;;;;;6340560;22;45270;-71
2023/10/06 18:25:56;;;;;;;;;10.67;9.67;;;;;;;;6338889;22;45313;-70
2023/10/06 18:28:21;;;;;;;;;9.67;9.00;;;;;;;;6339876;22;45241;-69
2023/10/06 18:30:48;;;;;;;;;11.33;10.33;;;;;;;;6340307;22;45330;-69
2023/10/06 18:33:13;;;;;;;;;10.00;8.00;;;;;;;;6340903;22;45247;-69
2023/10/06 18:35:38;;;;;;;;;9.33;8.33;;;;;;;;6311643;22;45342;-69
2023/10/06 18:38:04;;;;;;;;;14.67;10.33;;;;;;;;6341192;22;45122;-70
2023/10/06 18:40:29;;;;;;;;;13.00;8.67;;;;;;;;6340635;22;45219;-69
2023/10/06 18:42:54;;;;;;;;;14.33;7.00;;;;;;;;6340990;22;45219;-70
2023/10/06 18:45:19;;;;;;;;;12.33;10.00;;;;;;;;6340620;22;44711;-70
2023/10/06 18:47:45;;;;;;;;;18.00;15.33;;;;;;;;6340638;22;45227;-70
2023/10/06 18:50:21;;;;;;;;;16.67;16.00;;;;;;;;6340952;22;45846;-70
2023/10/06 18:52:47;;;;;;;;;22.33;20.33;;;;;;;;6338442;22;45357;-70
2023/10/06 18:55:12;;;;;;;;;15.33;15.33;;;;;;;;6340798;22;45479;-69
2023/10/06 18:57:38;;;;;;;;;14.33;14.33;;;;;;;;6311163;22;45501;-71
2023/10/06 19:00:08;;;;;;;;;31.33;27.33;;;;;;;;6340601;22;45216;-70
2023/10/06 19:02:34;;;;;;;;;54.75;44.00;;;;;;;;6310055;22;45195;-70
2023/10/06 19:04:59;;;;;;;;;50.00;39.50;;;;;;;;6340918;22;45160;-70
2023/10/06 19:07:24;;;;;;;;;48.50;40.00;;;;;;;;6340524;22;45152;-70
2023/10/06 19:09:49;;;;;;;;;43.75;35.00;;;;;;;;6340101;22;45215;-70
2023/10/06 19:12:16;;;;;;;;;49.25;40.25;;;;;;;;6340217;22;45110;-70
2023/10/06 19:14:42;;;;;;;;;43.25;36.50;;;;;;;;6340991;22;45236;-70
2023/10/06 19:17:08;;;;;;;;;43.00;35.75;;;;;;;;6339309;22;45264;-70
2023/10/06 19:19:33;;;;;;;;;33.00;30.33;;;;;;;;6340466;22;45861;-71
2023/10/06 19:22:00;;;;;;;;;41.00;33.50;;;;;;;;6340426;22;45176;-70
2023/10/06 19:24:25;;;;;;;;;34.50;31.50;;;;;;;;6312207;22;45208;-71
2023/10/06 19:26:50;;;;;;;;;37.00;30.25;;;;;;;;6339679;22;45350;-70
2023/10/06 19:29:19;;;;;;;;;39.75;32.75;;;;;;;;6340071;22;46006;-70
2023/10/06 19:31:45;;;;;;;;;35.00;32.00;;;;;;;;6340000;22;45204;-70
2023/10/06 19:34:10;;;;;;;;;33.67;30.00;;;;;;;;6340273;22;45112;-70
2023/10/06 19:36:36;;;;;;;;;40.50;32.00;;;;;;;;6339940;22;45344;-70
2023/10/06 19:39:03;;;;;;;;;36.00;29.50;;;;;;;;6340840;22;46368;-71
2023/10/06 19:41:28;;;;;;;;;35.00;30.25;;;;;;;;6339943;22;45310;-70
2023/10/06 19:43:53;;;;;;;;;40.33;32.67;;;;;;;;6340530;22;45239;-71
2023/10/06 19:46:19;;;;;;;;;34.33;31.00;;;;;;;;6311250;22;45718;-70
2023/10/06 19:48:46;;;;;;;;;38.25;30.50;;;;;;;;6340277;22;45282;-70
2023/10/06 19:51:12;;;;;;;;;38.75;32.00;;;;;;;;6340135;22;45226;-70
2023/10/06 19:53:37;;;;;;;;;44.75;37.25;;;;;;;;6340141;22;45234;-69
2023/10/06 19:56:03;;;;;;;;;44.00;36.50;;;;;;;;6339940;22;45466;-69
2023/10/06 19:58:28;;;;;;;;;45.00;37.00;;;;;;;;6340117;22;45997;-70
2023/10/06 20:00:54;;;;;;;;;49.25;39.00;;;;;;;;6339610;22;45105;-68
2023/10/06 20:03:19;;;;;;;;;44.00;35.50;;;;;;;;6340422;22;45295;-70
2023/10/06 20:05:45;;;;;;;;;44.75;37.00;;;;;;;;6339180;22;45268;-70
2023/10/06 20:08:10;;;;;;;;;40.25;35.00;;;;;;;;6340445;22;45278;-70
2023/10/06 20:10:35;;;;;;;;;44.50;36.00;;;;;;;;6312395;22;45318;-71
2023/10/06 20:13:02;;;;;;;;;43.25;36.00;;;;;;;;6340707;22;45342;-71
2023/10/06 20:15:28;;;;;;;;;43.25;36.00;;;;;;;;6340011;22;45412;-70
2023/10/06 20:17:53;;;;;;;;;40.50;32.25;;;;;;;;6339266;22;45291;-70
2023/10/06 20:20:22;;;;;;;;;45.00;37.00;;;;;;;;6340769;22;45339;-71
2023/10/06 20:22:47;;;;;;;;;45.00;36.75;;;;;;;;6340401;22;45175;-70
2023/10/06 20:25:14;;;;;;;;;43.50;37.25;;;;;;;;6340314;22;45308;-70
2023/10/06 20:27:46;;;;;;;;;36.50;32.25;;;;;;;;6311251;22;46442;-70
2023/10/06 20:30:11;;;;;;;;;44.00;35.25;;;;;;;;6310749;22;45683;-70
2023/10/06 20:32:36;;;;;;;;;34.00;30.50;;;;;;;;6339205;22;45231;-70
2023/10/06 20:35:02;;;;;;;;;38.75;33.00;;;;;;;;6340230;22;45274;-70
2023/10/06 20:37:27;;;;;;;;;40.50;33.50;;;;;;;;6311478;22;48054;-70
2023/10/06 20:39:52;;;;;;;;;38.25;34.00;;;;;;;;6311290;22;45266;-70
2023/10/06 20:42:18;;;;;;;;;39.25;33.00;;;;;;;;6340111;22;45224;-70
2023/10/06 20:44:43;;;;;;;;;35.25;31.75;;;;;;;;6340043;22;45380;-69
2023/10/06 20:47:09;;;;;;;;;40.00;33.50;;;;;;;;6339329;22;46119;-70
2023/10/06 20:49:36;;;;;;;;;41.75;35.50;;;;;;;;6312000;22;45137;-70
2023/10/06 20:52:01;;;;;;;;;37.50;32.50;;;;;;;;6311005;22;45227;-70
2023/10/06 20:54:27;;;;;;;;;34.00;30.50;;;;;;;;6311318;22;45185;-70
2023/10/06 20:56:52;;;;;;;;;39.75;31.75;;;;;;;;6339869;22;45984;-71
2023/10/06 20:59:17;;;;;;;;;37.00;32.00;;;;;;;;6340163;22;45171;-70
2023/10/06 21:01:42;;;;;;;;;37.00;33.25;;;;;;;;6339849;22;45366;-71
2023/10/06 21:04:08;;;;;;;;;34.75;32.00;;;;;;;;6311381;22;46979;-70
2023/10/06 21:06:34;;;;;;;;;36.75;33.00;;;;;;;;6339721;22;45250;-71
2023/10/06 21:09:00;;;;;;;;;40.00;34.75;;;;;;;;6339960;22;45209;-69
2023/10/06 21:11:26;;;;;;;;;44.00;35.00;;;;;;;;6311115;22;45280;-70
2023/10/06 21:13:52;;;;;;;;;42.25;36.00;;;;;;;;6311221;22;46252;-70
2023/10/06 21:16:17;;;;;;;;;45.50;37.25;;;;;;;;6338676;22;46180;-70
2023/10/06 21:18:43;;;;;;;;;51.75;39.50;;;;;;;;6339381;22;45207;-70
2023/10/06 21:21:08;;;;;;;;;47.50;39.00;;;;;;;;6339511;22;45146;-70
2023/10/06 21:23:33;;;;;;;;;47.25;37.50;;;;;;;;6339981;22;45161;-69
2023/10/06 21:26:00;;;;;;;;;44.75;36.25;;;;;;;;6338478;22;46264;-69
2023/10/06 21:28:25;;;;;;;;;46.75;37.75;;;;;;;;6338172;22;45199;-70
2023/10/06 21:30:50;;;;;;;;;45.50;37.25;;;;;;;;6339731;22;45163;-69
2023/10/06 21:33:15;;;;;;;;;44.25;35.50;;;;;;;;6339799;22;45296;-69
2023/10/06 21:35:41;;;;;;;;;40.00;33.50;;;;;;;;6339611;22;45783;-69
